sensor_id;sensor_type;location;lat;lon;timestamp;pressure;altitude;pressure_sealevel;temperature;humidity
13690;BME280;6917;52.194;9.894;2022-10-23T00:01:12;100453.63;;;12.05;100.00
13690;BME280;6917;52.194;9.894;2022-10-23T00:03:37;100464.41;;;12.10;100.00
13690;BME280;6917;52.194;9.894;2022-10-23T00:06:06;100462.63;;;12.14;100.00
13690;BME280;6917;52.194;9.894;2022-10-23T00:08:31;100466.50;;;12.21;100.00
13690;BME280;6917;52.194;9.894;2022-10-23T00:10:57;100466.81;;;12.29;100.00
13690;BME280;6917;52.194;9.894;2022-10-23T00:13:22;100459.28;;;12.34;100.00
13690;BME280;6917;52.194;9.894;2022-10-23T00:15:47;100465.38;;;12.40;100.00
13690;BME280;6917;52.194;9.894;2022-10-23T00:18:12;100456.69;;;12.46;100.00
13690;BME280;6917;52.194;9.894;2022-10-23T00:20:38;100456.84;;;12.50;100.00
13690;BME280;6917;52.194;9.894;2022-10-23T00:23:03;100454.25;;;12.54;100.00
13690;BME280;6917;52.194;9.894;2022-10-23T00:25:28;100457.00;;;12.54;100.00
13690;BME280;6917;52.194;9.894;2022-10-23T00:27:54;100457.66;;;12.59;100.00
13690;BME280;6917;52.194;9.894;2022-10-23T00:30:19;100463.28;;;12.54;100.00
13690;BME280;6917;52.194;9.894;2022-10-23T00:32:44;100462.78;;;12.52;100.00
13690;BME280;6917;52.194;9.894;2022-10-23T00:35:10;100464.25;;;12.49;100.00
13690;BME280;6917;52.194;9.894;2022-10-23T00:37:35;100455.38;;;12.44;100.00
13690;BME280;6917;52.194;9.894;2022-10-23T00:40:01;100460.84;;;12.44;100.00
13690;BME280;6917;52.194;9.894;2022-10-23T00:42:26;100458.78;;;12.41;100.00
13690;BME280;6917;52.194;9.894;2022-10-23T00:47:17;100468.94;;;12.40;100.00
13690;BME280;6917;52.194;9.894;2022-10-23T00:49:42;100463.63;;;12.35;100.00
13690;BME280;6917;52.194;9.894;2022-10-23T00:52:09;100449.91;;;12.35;100.00
13690;BME280;6917;52.194;9.894;2022-10-23T00:54:38;100452.03;;;12.30;100.00
13690;BME280;6917;52.194;9.894;2022-10-23T00:57:05;100447.81;;;12.24;100.00
13690;BME280;6917;52.194;9.894;2022-10-23T00:59:32;100444.94;;;12.20;100.00
13690;BME280;6917;52.194;9.894;2022-10-23T01:01:58;100446.06;;;12.19;100.00
13690;BME280;6917;52.194;9.894;2022-10-23T01:04:24;100439.44;;;12.20;100.00
13690;BME280;6917;52.194;9.894;2022-10-23T01:07:14;100442.31;;;12.15;100.00
13690;BME280;6917;52.194;9.894;2022-10-23T01:17:37;100443.63;;;11.91;100.00
13690;BME280;6917;52.194;9.894;2022-10-23T01:31:42;100430.84;;;11.78;100.00
13690;BME280;6917;52.194;9.894;2022-10-23T01:34:10;100428.28;;;11.82;100.00
13690;BME280;6917;52.194;9.894;2022-10-23T01:36:38;100416.22;;;11.83;100.00
13690;BME280;6917;52.194;9.894;2022-10-23T01:39:07;100420.41;;;11.98;100.00
13690;BME280;6917;52.194;9.894;2022-10-23T01:41:49;100405.59;;;11.99;100.00
13690;BME280;6917;52.194;9.894;2022-10-23T01:46:48;100402.69;;;11.95;100.00
13690;BME280;6917;52.194;9.894;2022-10-23T01:49:15;100393.19;;;11.93;100.00
13690;BME280;6917;52.194;9.894;2022-10-23T01:51:45;100383.53;;;11.95;100.00
13690;BME280;6917;52.194;9.894;2022-10-23T01:54:14;100391.91;;;11.99;100.00
13690;BME280;6917;52.194;9.894;2022-10-23T01:56:43;100398.47;;;11.72;100.00
13690;BME280;6917;52.194;9.894;2022-10-23T01:59:17;100400.38;;;11.62;100.00
13690;BME280;6917;52.194;9.894;2022-10-23T02:01:45;100393.59;;;11.51;100.00
13690;BME280;6917;52.194;9.894;2022-10-23T02:04:16;100407.31;;;11.69;100.00
13690;BME280;6917;52.194;9.894;2022-10-23T02:06:42;100417.81;;;11.75;100.00
13690;BME280;6917;52.194;9.894;2022-10-23T02:09:08;100404.13;;;11.75;100.00
13690;BME280;6917;52.194;9.894;2022-10-23T02:11:38;100411.66;;;11.70;100.00
13690;BME280;6917;52.194;9.894;2022-10-23T02:16:50;100404.91;;;11.58;100.00
13690;BME280;6917;52.194;9.894;2022-10-23T02:19:18;100392.31;;;11.49;100.00
13690;BME280;6917;52.194;9.894;2022-10-23T02:21:50;100394.88;;;11.54;100.00
13690;BME280;6917;52.194;9.894;2022-10-23T02:24:19;100385.75;;;11.58;100.00
13690;BME280;6917;52.194;9.894;2022-10-23T02:26:55;100391.69;;;11.60;100.00
13690;BME280;6917;52.194;9.894;2022-10-23T02:29:43;100386.88;;;11.66;100.00
13690;BME280;6917;52.194;9.894;2022-10-23T02:32:12;100386.69;;;11.54;100.00
13690;BME280;6917;52.194;9.894;2022-10-23T02:34:38;100375.53;;;11.33;100.00
13690;BME280;6917;52.194;9.894;2022-10-23T02:37:04;100384.56;;;11.33;100.00
13690;BME280;6917;52.194;9.894;2022-10-23T02:39:29;100384.84;;;11.23;100.00
13690;BME280;6917;52.194;9.894;2022-10-23T02:42:12;100379.97;;;11.12;100.00
13690;BME280;6917;52.194;9.894;2022-10-23T02:47:24;100378.03;;;11.03;100.00
13690;BME280;6917;52.194;9.894;2022-10-23T02:52:45;100367.13;;;10.72;100.00
13690;BME280;6917;52.194;9.894;2022-10-23T02:55:27;100366.63;;;10.70;100.00
13690;BME280;6917;52.194;9.894;2022-10-23T02:58:09;100358.13;;;10.81;100.00
13690;BME280;6917;52.194;9.894;2022-10-23T03:00:44;100357.81;;;10.73;100.00
13690;BME280;6917;52.194;9.894;2022-10-23T03:03:14;100360.53;;;10.73;100.00
13690;BME280;6917;52.194;9.894;2022-10-23T03:05:42;100361.59;;;10.64;100.00
13690;BME280;6917;52.194;9.894;2022-10-23T03:08:10;100364.47;;;10.59;100.00
13690;BME280;6917;52.194;9.894;2022-10-23T03:10:36;100362.09;;;10.66;100.00
13690;BME280;6917;52.194;9.894;2022-10-23T03:13:01;100349.97;;;10.89;100.00
13690;BME280;6917;52.194;9.894;2022-10-23T03:15:26;100347.91;;;10.95;100.00
13690;BME280;6917;52.194;9.894;2022-10-23T03:17:52;100331.53;;;11.03;100.00
13690;BME280;6917;52.194;9.894;2022-10-23T03:20:17;100342.00;;;11.10;100.00
13690;BME280;6917;52.194;9.894;2022-10-23T03:22:42;100334.81;;;11.14;100.00
13690;BME280;6917;52.194;9.894;2022-10-23T03:25:08;100340.28;;;11.14;100.00
13690;BME280;6917;52.194;9.894;2022-10-23T03:27:34;100328.13;;;10.89;100.00
13690;BME280;6917;52.194;9.894;2022-10-23T03:29:59;100333.91;;;10.96;100.00
13690;BME280;6917;52.194;9.894;2022-10-23T03:32:25;100339.59;;;11.00;100.00
13690;BME280;6917;52.194;9.894;2022-10-23T03:34:50;100333.00;;;11.01;100.00
13690;BME280;6917;52.194;9.894;2022-10-23T03:37:15;100328.16;;;11.07;100.00
13690;BME280;6917;52.194;9.894;2022-10-23T03:39:40;100335.97;;;11.30;100.00
13690;BME280;6917;52.194;9.894;2022-10-23T03:42:06;100334.84;;;11.49;100.00
13690;BME280;6917;52.194;9.894;2022-10-23T03:44:31;100321.19;;;11.57;100.00
13690;BME280;6917;52.194;9.894;2022-10-23T03:46:58;100330.53;;;11.65;100.00
13690;BME280;6917;52.194;9.894;2022-10-23T03:49:23;100331.00;;;11.67;100.00
13690;BME280;6917;52.194;9.894;2022-10-23T03:51:48;100323.91;;;11.66;100.00
13690;BME280;6917;52.194;9.894;2022-10-23T03:54:24;100316.19;;;11.68;100.00
13690;BME280;6917;52.194;9.894;2022-10-23T03:56:50;100319.25;;;11.67;100.00
13690;BME280;6917;52.194;9.894;2022-10-23T03:59:16;100316.84;;;11.65;100.00
13690;BME280;6917;52.194;9.894;2022-10-23T04:01:41;100318.94;;;11.68;100.00
13690;BME280;6917;52.194;9.894;2022-10-23T04:04:07;100320.56;;;11.60;100.00
13690;BME280;6917;52.194;9.894;2022-10-23T04:06:32;100316.22;;;11.59;100.00
13690;BME280;6917;52.194;9.894;2022-10-23T04:08:57;100322.66;;;11.72;100.00
13690;BME280;6917;52.194;9.894;2022-10-23T04:11:23;100322.00;;;11.75;100.00
13690;BME280;6917;52.194;9.894;2022-10-23T04:13:48;100323.78;;;11.80;100.00
13690;BME280;6917;52.194;9.894;2022-10-23T04:16:13;100324.09;;;11.78;100.00
13690;BME280;6917;52.194;9.894;2022-10-23T04:18:40;100320.25;;;11.79;100.00
13690;BME280;6917;52.194;9.894;2022-10-23T04:21:05;100328.63;;;11.83;100.00
13690;BME280;6917;52.194;9.894;2022-10-23T04:23:31;100329.91;;;11.85;100.00
13690;BME280;6917;52.194;9.894;2022-10-23T04:25:56;100326.34;;;11.85;100.00
13690;BME280;6917;52.194;9.894;2022-10-23T04:28:22;100327.50;;;11.84;100.00
13690;BME280;6917;52.194;9.894;2022-10-23T04:30:47;100329.91;;;11.85;100.00
13690;BME280;6917;52.194;9.894;2022-10-23T04:33:13;100323.63;;;11.85;100.00
13690;BME280;6917;52.194;9.894;2022-10-23T04:35:38;100325.56;;;11.84;100.00
13690;BME280;6917;52.194;9.894;2022-10-23T04:38:03;100328.94;;;11.81;100.00
13690;BME280;6917;52.194;9.894;2022-10-23T04:40:28;100320.25;;;11.79;100.00
13690;BME280;6917;52.194;9.894;2022-10-23T04:42:54;100317.81;;;11.78;100.00
13690;BME280;6917;52.194;9.894;2022-10-23T04:45:19;100327.00;;;11.82;100.00
13690;BME280;6917;52.194;9.894;2022-10-23T04:47:44;100322.81;;;11.84;100.00
13690;BME280;6917;52.194;9.894;2022-10-23T04:50:10;100326.88;;;11.87;100.00
13690;BME280;6917;52.194;9.894;2022-10-23T04:52:35;100315.91;;;11.87;100.00
13690;BME280;6917;52.194;9.894;2022-10-23T04:55:00;100312.84;;;11.88;100.00
13690;BME280;6917;52.194;9.894;2022-10-23T04:57:26;100317.53;;;11.88;100.00
13690;BME280;6917;52.194;9.894;2022-10-23T04:59:51;100321.88;;;11.89;100.00
13690;BME280;6917;52.194;9.894;2022-10-23T05:02:16;100319.94;;;11.89;100.00
13690;BME280;6917;52.194;9.894;2022-10-23T05:04:41;100318.66;;;11.87;100.00
13690;BME280;6917;52.194;9.894;2022-10-23T05:07:07;100323.00;;;11.88;100.00
13690;BME280;6917;52.194;9.894;2022-10-23T05:09:32;100314.94;;;11.83;100.00
13690;BME280;6917;52.194;9.894;2022-10-23T05:11:57;100312.06;;;11.88;100.00
13690;BME280;6917;52.194;9.894;2022-10-23T05:14:22;100318.16;;;11.94;100.00
13690;BME280;6917;52.194;9.894;2022-10-23T05:17:18;100312.03;;;11.97;100.00
13690;BME280;6917;52.194;9.894;2022-10-23T05:19:52;100294.66;;;11.93;100.00
13690;BME280;6917;52.194;9.894;2022-10-23T05:22:19;100300.59;;;11.95;100.00
13690;BME280;6917;52.194;9.894;2022-10-23T05:24:47;100299.94;;;11.98;100.00
13690;BME280;6917;52.194;9.894;2022-10-23T05:27:13;100294.47;;;11.98;100.00
13690;BME280;6917;52.194;9.894;2022-10-23T05:29:38;100293.34;;;11.99;100.00
13690;BME280;6917;52.194;9.894;2022-10-23T05:32:05;100293.34;;;11.99;100.00
13690;BME280;6917;52.194;9.894;2022-10-23T05:34:34;100289.97;;;12.02;100.00
13690;BME280;6917;52.194;9.894;2022-10-23T05:37:01;100292.72;;;12.02;100.00
13690;BME280;6917;52.194;9.894;2022-10-23T05:39:27;100298.19;;;12.02;100.00
13690;BME280;6917;52.194;9.894;2022-10-23T05:41:53;100298.00;;;11.98;100.00
13690;BME280;6917;52.194;9.894;2022-10-23T05:44:19;100299.31;;;12.01;100.00
13690;BME280;6917;52.194;9.894;2022-10-23T05:46:44;100295.28;;;12.07;100.00
13690;BME280;6917;52.194;9.894;2022-10-23T05:49:10;100298.81;;;12.16;100.00
13690;BME280;6917;52.194;9.894;2022-10-23T05:51:36;100296.53;;;12.18;100.00
13690;BME280;6917;52.194;9.894;2022-10-23T05:54:02;100292.19;;;12.17;100.00
13690;BME280;6917;52.194;9.894;2022-10-23T05:56:28;100302.03;;;12.18;100.00
13690;BME280;6917;52.194;9.894;2022-10-23T05:58:53;100298.28;;;12.23;100.00
13690;BME280;6917;52.194;9.894;2022-10-23T06:01:18;100295.09;;;12.20;100.00
13690;BME280;6917;52.194;9.894;2022-10-23T06:03:44;100283.13;;;12.25;100.00
13690;BME280;6917;52.194;9.894;2022-10-23T06:06:09;100288.47;;;12.21;100.00
13690;BME280;6917;52.194;9.894;2022-10-23T06:08:34;100294.56;;;12.27;100.00
13690;BME280;6917;52.194;9.894;2022-10-23T06:11:11;100295.03;;;12.29;100.00
13690;BME280;6917;52.194;9.894;2022-10-23T06:13:37;100291.50;;;12.29;100.00
13690;BME280;6917;52.194;9.894;2022-10-23T06:16:14;100295.38;;;12.28;100.00
13690;BME280;6917;52.194;9.894;2022-10-23T06:18:40;100292.81;;;12.23;100.00
13690;BME280;6917;52.194;9.894;2022-10-23T06:21:06;100290.22;;;12.26;100.00
13690;BME280;6917;52.194;9.894;2022-10-23T06:23:32;100291.03;;;12.27;100.00
13690;BME280;6917;52.194;9.894;2022-10-23T06:25:59;100302.16;;;12.30;100.00
13690;BME280;6917;52.194;9.894;2022-10-23T06:28:24;100301.19;;;12.26;100.00
13690;BME280;6917;52.194;9.894;2022-10-23T06:30:50;100290.56;;;12.25;100.00
13690;BME280;6917;52.194;9.894;2022-10-23T06:33:15;100290.56;;;12.25;100.00
13690;BME280;6917;52.194;9.894;2022-10-23T06:35:40;100279.44;;;12.30;100.00
13690;BME280;6917;52.194;9.894;2022-10-23T06:38:06;100279.41;;;12.38;100.00
13690;BME280;6917;52.194;9.894;2022-10-23T06:40:33;100281.94;;;12.43;100.00
13690;BME280;6917;52.194;9.894;2022-10-23T06:42:58;100277.19;;;12.32;100.00
13690;BME280;6917;52.194;9.894;2022-10-23T06:45:23;100280.06;;;12.35;100.00
13690;BME280;6917;52.194;9.894;2022-10-23T06:47:49;100286.31;;;12.44;100.00
13690;BME280;6917;52.194;9.894;2022-10-23T06:50:15;100283.59;;;12.44;100.00
13690;BME280;6917;52.194;9.894;2022-10-23T06:52:40;100280.00;;;12.52;100.00
13690;BME280;6917;52.194;9.894;2022-10-23T06:55:06;100289.16;;;12.57;100.00
13690;BME280;6917;52.194;9.894;2022-10-23T06:57:32;100282.53;;;12.58;100.00
13690;BME280;6917;52.194;9.894;2022-10-23T06:59:58;100280.44;;;12.63;100.00
13690;BME280;6917;52.194;9.894;2022-10-23T07:02:23;100289.00;;;12.62;100.00
13690;BME280;6917;52.194;9.894;2022-10-23T07:04:48;100284.44;;;12.66;100.00
13690;BME280;6917;52.194;9.894;2022-10-23T07:07:13;100282.25;;;12.59;100.00
13690;BME280;6917;52.194;9.894;2022-10-23T07:09:39;100282.41;;;12.54;100.00
13690;BME280;6917;52.194;9.894;2022-10-23T07:12:04;100275.84;;;12.46;100.00
13690;BME280;6917;52.194;9.894;2022-10-23T07:14:29;100281.72;;;12.57;100.00
13690;BME280;6917;52.194;9.894;2022-10-23T07:16:56;100268.53;;;12.59;100.00
13690;BME280;6917;52.194;9.894;2022-10-23T07:19:22;100266.59;;;12.60;100.00
13690;BME280;6917;52.194;9.894;2022-10-23T07:21:47;100266.28;;;12.52;100.00
13690;BME280;6917;52.194;9.894;2022-10-23T07:24:12;100265.94;;;12.63;100.00
13690;BME280;6917;52.194;9.894;2022-10-23T07:26:38;100251.44;;;12.62;100.00
13690;BME280;6917;52.194;9.894;2022-10-23T07:29:03;100240.31;;;12.59;100.00
13690;BME280;6917;52.194;9.894;2022-10-23T07:31:28;100253.06;;;12.55;100.00
13690;BME280;6917;52.194;9.894;2022-10-23T07:33:54;100259.44;;;12.67;100.00
13690;BME280;6917;52.194;9.894;2022-10-23T07:36:19;100264.59;;;12.69;100.00
13690;BME280;6917;52.194;9.894;2022-10-23T07:38:45;100275.41;;;12.74;100.00
13690;BME280;6917;52.194;9.894;2022-10-23T07:41:11;100267.00;;;12.70;100.00
13690;BME280;6917;52.194;9.894;2022-10-23T07:43:36;100269.63;;;12.67;100.00
13690;BME280;6917;52.194;9.894;2022-10-23T07:46:02;100269.13;;;12.73;100.00
13690;BME280;6917;52.194;9.894;2022-10-23T07:48:28;100267.13;;;12.82;100.00
13690;BME280;6917;52.194;9.894;2022-10-23T07:50:57;100256.94;;;12.83;100.00
13690;BME280;6917;52.194;9.894;2022-10-23T07:53:24;100257.28;;;12.81;100.00
13690;BME280;6917;52.194;9.894;2022-10-23T07:58:18;100261.72;;;12.95;100.00
13690;BME280;6917;52.194;9.894;2022-10-23T08:00:43;100265.06;;;13.00;100.00
13690;BME280;6917;52.194;9.894;2022-10-23T08:03:09;100261.69;;;13.03;100.00
13690;BME280;6917;52.194;9.894;2022-10-23T08:05:37;100256.53;;;13.02;100.00
13690;BME280;6917;52.194;9.894;2022-10-23T08:08:02;100257.00;;;13.04;100.00
13690;BME280;6917;52.194;9.894;2022-10-23T08:10:27;100247.41;;;13.19;100.00
13690;BME280;6917;52.194;9.894;2022-10-23T08:12:53;100254.19;;;13.21;100.00
13690;BME280;6917;52.194;9.894;2022-10-23T08:15:18;100256.53;;;13.31;100.00
13690;BME280;6917;52.194;9.894;2022-10-23T08:17:43;100247.50;;;13.31;100.00
13690;BME280;6917;52.194;9.894;2022-10-23T08:20:09;100259.47;;;13.47;100.00
13690;BME280;6917;52.194;9.894;2022-10-23T08:22:34;100258.34;;;13.48;100.00
13690;BME280;6917;52.194;9.894;2022-10-23T08:25:01;100262.75;;;13.61;100.00
13690;BME280;6917;52.194;9.894;2022-10-23T08:27:26;100255.91;;;13.67;100.00
13690;BME280;6917;52.194;9.894;2022-10-23T08:29:52;100252.34;;;13.67;100.00
13690;BME280;6917;52.194;9.894;2022-10-23T08:32:17;100251.03;;;13.85;100.00
13690;BME280;6917;52.194;9.894;2022-10-23T08:34:42;100252.56;;;13.95;100.00
13690;BME280;6917;52.194;9.894;2022-10-23T08:37:07;100245.81;;;13.92;100.00
13690;BME280;6917;52.194;9.894;2022-10-23T08:39:33;100252.28;;;14.09;100.00
13690;BME280;6917;52.194;9.894;2022-10-23T08:41:58;100247.19;;;13.98;100.00
13690;BME280;6917;52.194;9.894;2022-10-23T08:44:29;100260.97;;;14.11;100.00
13690;BME280;6917;52.194;9.894;2022-10-23T08:47:24;100250.09;;;14.14;100.00
13690;BME280;6917;52.194;9.894;2022-10-23T08:50:02;100249.22;;;14.22;100.00
13690;BME280;6917;52.194;9.894;2022-10-23T08:52:49;100248.63;;;14.29;100.00
13690;BME280;6917;52.194;9.894;2022-10-23T08:58:00;100252.91;;;14.39;100.00
13690;BME280;6917;52.194;9.894;2022-10-23T09:00:28;100237.16;;;14.48;100.00
13690;BME280;6917;52.194;9.894;2022-10-23T09:02:54;100238.75;;;14.49;100.00
13690;BME280;6917;52.194;9.894;2022-10-23T09:08:48;100231.88;;;14.67;98.93
13690;BME280;6917;52.194;9.894;2022-10-23T09:11:21;100236.34;;;14.72;97.73
13690;BME280;6917;52.194;9.894;2022-10-23T09:14:24;100245.19;;;14.77;98.39
13690;BME280;6917;52.194;9.894;2022-10-23T09:17:03;100240.94;;;14.80;98.16
13690;BME280;6917;52.194;9.894;2022-10-23T09:19:34;100236.88;;;14.89;98.16
13690;BME280;6917;52.194;9.894;2022-10-23T09:21:59;100247.78;;;14.86;97.78
13690;BME280;6917;52.194;9.894;2022-10-23T09:24:26;100243.88;;;14.87;96.87
13690;BME280;6917;52.194;9.894;2022-10-23T09:26:55;100240.22;;;14.83;95.97
13690;BME280;6917;52.194;9.894;2022-10-23T09:29:27;100243.88;;;14.87;96.25
13690;BME280;6917;52.194;9.894;2022-10-23T09:31:55;100238.53;;;14.91;95.56
13690;BME280;6917;52.194;9.894;2022-10-23T09:34:26;100243.53;;;14.88;95.09
13690;BME280;6917;52.194;9.894;2022-10-23T09:36:57;100239.66;;;14.89;95.46
13690;BME280;6917;52.194;9.894;2022-10-23T09:39:27;100229.56;;;14.94;95.11
13690;BME280;6917;52.194;9.894;2022-10-23T09:41:53;100239.53;;;14.98;94.40
13690;BME280;6917;52.194;9.894;2022-10-23T09:44:32;100252.50;;;14.98;93.77
13690;BME280;6917;52.194;9.894;2022-10-23T09:47:07;100250.78;;;15.05;93.58
13690;BME280;6917;52.194;9.894;2022-10-23T09:49:34;100247.53;;;15.03;92.90
13690;BME280;6917;52.194;9.894;2022-10-23T09:54:31;100241.00;;;15.20;91.87
13690;BME280;6917;52.194;9.894;2022-10-23T09:57:03;100238.00;;;15.25;91.31
13690;BME280;6917;52.194;9.894;2022-10-23T09:59:31;100235.69;;;15.27;91.26
13690;BME280;6917;52.194;9.894;2022-10-23T10:01:59;100238.09;;;15.29;90.38
13690;BME280;6917;52.194;9.894;2022-10-23T10:04:36;100231.09;;;15.31;89.99
13690;BME280;6917;52.194;9.894;2022-10-23T10:07:04;100227.44;;;15.27;90.51
13690;BME280;6917;52.194;9.894;2022-10-23T10:09:30;100217.69;;;15.30;90.56
13690;BME280;6917;52.194;9.894;2022-10-23T10:12:09;100218.81;;;15.29;90.75
13690;BME280;6917;52.194;9.894;2022-10-23T10:14:44;100210.78;;;15.36;90.51
13690;BME280;6917;52.194;9.894;2022-10-23T10:25:40;100206.19;;;15.40;91.12
13690;BME280;6917;52.194;9.894;2022-10-23T10:37:16;100201.50;;;15.68;89.84
13690;BME280;6917;52.194;9.894;2022-10-23T10:40:55;100196.44;;;15.70;88.68
13690;BME280;6917;52.194;9.894;2022-10-23T10:43:25;100184.56;;;15.82;88.07
13690;BME280;6917;52.194;9.894;2022-10-23T10:45:47;100177.59;;;15.72;88.29
13690;BME280;6917;52.194;9.894;2022-10-23T10:51:02;100170.59;;;15.91;88.29
13690;BME280;6917;52.194;9.894;2022-10-23T10:53:52;100170.00;;;15.97;88.29
13690;BME280;6917;52.194;9.894;2022-10-23T10:56:21;100170.19;;;16.04;87.60
13690;BME280;6917;52.194;9.894;2022-10-23T10:58:55;100164.34;;;16.06;88.10
13690;BME280;6917;52.194;9.894;2022-10-23T11:01:32;100164.88;;;16.12;87.60
13690;BME280;6917;52.194;9.894;2022-10-23T11:04:05;100165.50;;;16.21;87.26
13690;BME280;6917;52.194;9.894;2022-10-23T11:06:36;100151.59;;;16.17;87.45
13690;BME280;6917;52.194;9.894;2022-10-23T11:09:13;100164.50;;;16.29;87.09
13690;BME280;6917;52.194;9.894;2022-10-23T11:11:40;100164.69;;;16.36;86.26
13690;BME280;6917;52.194;9.894;2022-10-23T11:14:13;100146.53;;;16.35;86.52
13690;BME280;6917;52.194;9.894;2022-10-23T11:16:38;100140.66;;;16.36;86.89
13690;BME280;6917;52.194;9.894;2022-10-23T11:27:26;100127.59;;;16.84;83.88
13690;BME280;6917;52.194;9.894;2022-10-23T11:38:22;100112.56;;;17.40;81.65
13690;BME280;6917;52.194;9.894;2022-10-23T11:40:51;100101.94;;;17.42;80.47
13690;BME280;6917;52.194;9.894;2022-10-23T11:43:34;100097.28;;;17.46;80.71
13690;BME280;6917;52.194;9.894;2022-10-23T11:46:14;100099.81;;;17.54;80.93
13690;BME280;6917;52.194;9.894;2022-10-23T11:48:54;100091.88;;;17.72;80.86
13690;BME280;6917;52.194;9.894;2022-10-23T11:51:29;100083.16;;;17.70;80.02
13690;BME280;6917;52.194;9.894;2022-10-23T11:59:49;100070.84;;;17.91;79.92
13690;BME280;6917;52.194;9.894;2022-10-23T12:02:35;100067.28;;;17.90;79.22
13690;BME280;6917;52.194;9.894;2022-10-23T12:05:09;100063.63;;;17.82;79.48
13690;BME280;6917;52.194;9.894;2022-10-23T12:07:54;100062.28;;;17.96;79.38
13690;BME280;6917;52.194;9.894;2022-10-23T12:10:33;100064.91;;;17.89;79.37
13690;BME280;6917;52.194;9.894;2022-10-23T12:13:01;100051.41;;;17.83;79.23
13690;BME280;6917;52.194;9.894;2022-10-23T12:15:30;100047.53;;;17.88;79.55
13690;BME280;6917;52.194;9.894;2022-10-23T12:18:15;100044.56;;;18.00;79.48
13690;BME280;6917;52.194;9.894;2022-10-23T12:20:51;100044.19;;;18.02;79.37
13690;BME280;6917;52.194;9.894;2022-10-23T12:25:55;100034.50;;;17.89;78.81
13690;BME280;6917;52.194;9.894;2022-10-23T12:28:36;100036.09;;;17.90;78.99
13690;BME280;6917;52.194;9.894;2022-10-23T12:39:30;100023.06;;;17.90;77.48
13690;BME280;6917;52.194;9.894;2022-10-23T12:41:56;100017.75;;;17.78;77.69
13690;BME280;6917;52.194;9.894;2022-10-23T12:44:22;100022.09;;;17.79;77.29
13690;BME280;6917;52.194;9.894;2022-10-23T12:46:55;100026.66;;;17.68;78.39
13690;BME280;6917;52.194;9.894;2022-10-23T12:49:23;100020.16;;;17.79;78.79
13690;BME280;6917;52.194;9.894;2022-10-23T12:52:02;100012.75;;;17.64;78.82
13690;BME280;6917;52.194;9.894;2022-10-23T12:54:32;99999.44;;;17.47;80.27
13690;BME280;6917;52.194;9.894;2022-10-23T12:57:18;100005.38;;;17.49;80.14
13690;BME280;6917;52.194;9.894;2022-10-23T12:59:43;100002.38;;;17.58;78.67
13690;BME280;6917;52.194;9.894;2022-10-23T13:04:44;99986.78;;;17.46;78.94
13690;BME280;6917;52.194;9.894;2022-10-23T13:07:10;99983.97;;;17.42;78.36
13690;BME280;6917;52.194;9.894;2022-10-23T13:09:39;99974.59;;;17.47;78.70
13690;BME280;6917;52.194;9.894;2022-10-23T13:12:06;99970.66;;;17.48;79.10
13690;BME280;6917;52.194;9.894;2022-10-23T13:14:37;99974.94;;;17.45;79.62
13690;BME280;6917;52.194;9.894;2022-10-23T13:17:07;99968.63;;;17.45;79.46
13690;BME280;6917;52.194;9.894;2022-10-23T13:19:33;99973.16;;;17.57;79.58
13690;BME280;6917;52.194;9.894;2022-10-23T13:21:59;99960.78;;;17.70;79.15
13690;BME280;6917;52.194;9.894;2022-10-23T13:24:27;99950.28;;;17.56;79.55
13690;BME280;6917;52.194;9.894;2022-10-23T13:26:53;99948.06;;;17.65;79.39
13690;BME280;6917;52.194;9.894;2022-10-23T13:29:22;99948.19;;;17.72;80.00
13690;BME280;6917;52.194;9.894;2022-10-23T13:31:49;99937.94;;;17.73;80.11
13690;BME280;6917;52.194;9.894;2022-10-23T13:34:28;99937.59;;;17.78;79.95
13690;BME280;6917;52.194;9.894;2022-10-23T13:36:58;99929.00;;;17.83;79.00
13690;BME280;6917;52.194;9.894;2022-10-23T13:39:26;99931.28;;;17.77;78.45
13690;BME280;6917;52.194;9.894;2022-10-23T13:41:53;99941.91;;;17.75;78.98
13690;BME280;6917;52.194;9.894;2022-10-23T13:44:21;99930.09;;;17.52;80.27
13690;BME280;6917;52.194;9.894;2022-10-23T13:46:47;99930.81;;;17.49;79.12
13690;BME280;6917;52.194;9.894;2022-10-23T13:49:13;99941.94;;;17.52;79.79
13690;BME280;6917;52.194;9.894;2022-10-23T13:51:42;99949.25;;;17.41;80.85
13690;BME280;6917;52.194;9.894;2022-10-23T13:54:13;99954.44;;;17.46;80.30
13690;BME280;6917;52.194;9.894;2022-10-23T13:56:39;99952.56;;;17.28;80.34
13690;BME280;6917;52.194;9.894;2022-10-23T13:59:05;99940.31;;;17.25;80.85
13690;BME280;6917;52.194;9.894;2022-10-23T14:01:34;99930.91;;;17.30;80.03
13690;BME280;6917;52.194;9.894;2022-10-23T14:04:04;99931.75;;;17.34;80.54
13690;BME280;6917;52.194;9.894;2022-10-23T14:06:30;99925.38;;;17.30;80.11
13690;BME280;6917;52.194;9.894;2022-10-23T14:08:56;99915.50;;;17.29;80.04
13690;BME280;6917;52.194;9.894;2022-10-23T14:11:21;99915.06;;;17.27;80.01
13690;BME280;6917;52.194;9.894;2022-10-23T14:13:47;99912.63;;;17.21;80.13
13690;BME280;6917;52.194;9.894;2022-10-23T14:16:15;99910.13;;;17.13;81.18
13690;BME280;6917;52.194;9.894;2022-10-23T14:18:41;99894.16;;;17.03;81.46
13690;BME280;6917;52.194;9.894;2022-10-23T14:21:09;99891.03;;;17.04;81.16
13690;BME280;6917;52.194;9.894;2022-10-23T14:23:34;99886.31;;;17.05;81.50
13690;BME280;6917;52.194;9.894;2022-10-23T14:26:04;99874.41;;;17.01;82.28
13690;BME280;6917;52.194;9.894;2022-10-23T14:28:30;99872.44;;;17.01;82.33
13690;BME280;6917;52.194;9.894;2022-10-23T14:30:56;99870.13;;;17.03;81.81
13690;BME280;6917;52.194;9.894;2022-10-23T14:33:21;99864.06;;;16.94;82.12
13690;BME280;6917;52.194;9.894;2022-10-23T14:35:49;99865.94;;;16.90;82.03
13690;BME280;6917;52.194;9.894;2022-10-23T14:38:14;99857.63;;;16.86;82.79
13690;BME280;6917;52.194;9.894;2022-10-23T14:40:39;99853.63;;;16.84;82.71
13690;BME280;6917;52.194;9.894;2022-10-23T14:43:05;99850.81;;;16.80;82.31